sensor_id;sensor_type;location;lat;lon;timestamp;P1;durP1;ratioP1;P2;durP2;ratioP2
9034;SDS011;4552;43.422;24.592;2023-09-19T00:12:32;5.73;;;3.80;;
9034;SDS011;4552;43.422;24.592;2023-09-19T00:14:59;6.23;;;3.57;;
9034;SDS011;4552;43.422;24.592;2023-09-19T00:17:26;5.40;;;3.10;;
9034;SDS011;4552;43.422;24.592;2023-09-19T00:19:57;5.17;;;3.57;;
9034;SDS011;4552;43.422;24.592;2023-09-19T00:22:24;5.80;;;3.83;;
9034;SDS011;4552;43.422;24.592;2023-09-19T00:24:51;3.40;;;3.10;;
9034;SDS011;4552;43.422;24.592;2023-09-19T00:27:20;4.33;;;3.37;;
9034;SDS011;4552;43.422;24.592;2023-09-19T00:29:49;4.07;;;3.30;;
9034;SDS011;4552;43.422;24.592;2023-09-19T00:32:18;4.77;;;3.57;;
9034;SDS011;4552;43.422;24.592;2023-09-19T03:14:30;7.00;;;3.93;;
9034;SDS011;4552;43.422;24.592;2023-09-19T03:17:00;4.40;;;4.00;;
9034;SDS011;4552;43.422;24.592;2023-09-19T03:19:29;4.90;;;4.13;;
9034;SDS011;4552;43.422;24.592;2023-09-19T03:21:58;8.57;;;3.93;;
9034;SDS011;4552;43.422;24.592;2023-09-19T03:24:25;4.73;;;3.83;;
9034;SDS011;4552;43.422;24.592;2023-09-19T03:37:01;7.73;;;5.97;;
9034;SDS011;4552;43.422;24.592;2023-09-19T03:39:28;16.03;;;9.67;;
9034;SDS011;4552;43.422;24.592;2023-09-19T03:41:55;17.57;;;10.63;;
9034;SDS011;4552;43.422;24.592;2023-09-19T03:44:22;9.07;;;6.23;;
9034;SDS011;4552;43.422;24.592;2023-09-19T03:46:49;16.40;;;10.80;;
9034;SDS011;4552;43.422;24.592;2023-09-19T03:49:16;12.70;;;8.67;;
9034;SDS011;4552;43.422;24.592;2023-09-19T03:51:42;10.37;;;6.67;;
9034;SDS011;4552;43.422;24.592;2023-09-19T03:54:11;5.53;;;4.60;;
9034;SDS011;4552;43.422;24.592;2023-09-19T03:56:38;6.70;;;4.83;;
9034;SDS011;4552;43.422;24.592;2023-09-19T03:59:05;5.70;;;4.33;;
9034;SDS011;4552;43.422;24.592;2023-09-19T04:01:33;5.33;;;4.20;;
9034;SDS011;4552;43.422;24.592;2023-09-19T04:04:00;5.20;;;3.50;;
9034;SDS011;4552;43.422;24.592;2023-09-19T04:06:33;5.27;;;3.67;;
9034;SDS011;4552;43.422;24.592;2023-09-19T04:09:00;4.67;;;3.67;;
9034;SDS011;4552;43.422;24.592;2023-09-19T04:11:28;6.57;;;3.17;;
9034;SDS011;4552;43.422;24.592;2023-09-19T04:13:55;5.90;;;3.97;;
9034;SDS011;4552;43.422;24.592;2023-09-19T04:16:22;7.07;;;4.27;;
9034;SDS011;4552;43.422;24.592;2023-09-19T04:18:49;6.33;;;3.63;;
9034;SDS011;4552;43.422;24.592;2023-09-19T04:21:16;10.30;;;5.43;;
9034;SDS011;4552;43.422;24.592;2023-09-19T04:23:44;6.90;;;5.00;;
9034;SDS011;4552;43.422;24.592;2023-09-19T05:13:06;5.80;;;3.90;;
9034;SDS011;4552;43.422;24.592;2023-09-19T05:15:35;6.90;;;4.50;;
9034;SDS011;4552;43.422;24.592;2023-09-19T05:18:02;5.60;;;4.20;;
9034;SDS011;4552;43.422;24.592;2023-09-19T05:20:31;4.97;;;4.00;;
9034;SDS011;4552;43.422;24.592;2023-09-19T05:23:00;8.50;;;4.90;;
9034;SDS011;4552;43.422;24.592;2023-09-19T05:25:28;4.77;;;4.20;;
9034;SDS011;4552;43.422;24.592;2023-09-19T05:48:06;9.85;;;5.65;;
9034;SDS011;4552;43.422;24.592;2023-09-19T05:50:34;9.47;;;5.47;;
9034;SDS011;4552;43.422;24.592;2023-09-19T05:53:01;9.80;;;4.83;;
9034;SDS011;4552;43.422;24.592;2023-09-19T05:55:29;5.70;;;4.60;;
9034;SDS011;4552;43.422;24.592;2023-09-19T05:57:56;5.80;;;4.17;;
9034;SDS011;4552;43.422;24.592;2023-09-19T06:00:23;5.23;;;3.90;;
9034;SDS011;4552;43.422;24.592;2023-09-19T06:02:52;5.77;;;3.83;;
9034;SDS011;4552;43.422;24.592;2023-09-19T06:05:22;4.67;;;3.90;;
9034;SDS011;4552;43.422;24.592;2023-09-19T06:07:49;4.00;;;3.60;;
9034;SDS011;4552;43.422;24.592;2023-09-19T06:10:17;6.60;;;4.40;;
9034;SDS011;4552;43.422;24.592;2023-09-19T06:12:46;4.80;;;3.70;;
9034;SDS011;4552;43.422;24.592;2023-09-19T06:15:13;5.43;;;3.87;;
9034;SDS011;4552;43.422;24.592;2023-09-19T06:17:42;4.73;;;3.80;;
9034;SDS011;4552;43.422;24.592;2023-09-19T06:20:09;26.63;;;19.07;;
9034;SDS011;4552;43.422;24.592;2023-09-19T06:22:41;5.37;;;4.33;;
9034;SDS011;4552;43.422;24.592;2023-09-19T06:25:09;5.53;;;4.27;;
9034;SDS011;4552;43.422;24.592;2023-09-19T06:27:37;8.57;;;6.63;;
9034;SDS011;4552;43.422;24.592;2023-09-19T06:30:07;10.87;;;6.53;;
9034;SDS011;4552;43.422;24.592;2023-09-19T06:32:35;11.83;;;8.27;;
9034;SDS011;4552;43.422;24.592;2023-09-19T06:35:02;12.23;;;10.93;;
9034;SDS011;4552;43.422;24.592;2023-09-19T06:37:32;19.37;;;14.73;;
9034;SDS011;4552;43.422;24.592;2023-09-19T06:40:01;15.43;;;11.70;;
9034;SDS011;4552;43.422;24.592;2023-09-19T06:42:30;11.70;;;10.37;;
9034;SDS011;4552;43.422;24.592;2023-09-19T06:44:58;13.53;;;9.50;;
9034;SDS011;4552;43.422;24.592;2023-09-19T12:03:06;14.67;;;13.67;;
9034;SDS011;4552;43.422;24.592;2023-09-19T12:05:36;13.87;;;13.00;;
9034;SDS011;4552;43.422;24.592;2023-09-19T12:08:03;14.40;;;13.40;;
9034;SDS011;4552;43.422;24.592;2023-09-19T12:10:33;14.73;;;13.73;;
9034;SDS011;4552;43.422;24.592;2023-09-19T12:13:09;13.93;;;13.10;;
9034;SDS011;4552;43.422;24.592;2023-09-19T12:15:37;14.07;;;13.17;;
9034;SDS011;4552;43.422;24.592;2023-09-19T12:18:06;13.57;;;12.67;;
9034;SDS011;4552;43.422;24.592;2023-09-19T12:20:43;14.03;;;12.90;;
9034;SDS011;4552;43.422;24.592;2023-09-19T12:23:12;13.80;;;13.00;;
9034;SDS011;4552;43.422;24.592;2023-09-19T12:25:41;13.80;;;12.90;;
9034;SDS011;4552;43.422;24.592;2023-09-19T12:28:12;14.43;;;13.53;;
9034;SDS011;4552;43.422;24.592;2023-09-19T12:30:38;14.77;;;13.80;;
9034;SDS011;4552;43.422;24.592;2023-09-19T12:33:15;5.00;;;4.60;;
9034;SDS011;4552;43.422;24.592;2023-09-19T12:35:44;5.10;;;4.70;;
9034;SDS011;4552;43.422;24.592;2023-09-19T12:38:22;4.63;;;4.17;;
9034;SDS011;4552;43.422;24.592;2023-09-19T12:40:50;5.03;;;4.57;;
9034;SDS011;4552;43.422;24.592;2023-09-19T12:43:18;4.70;;;4.30;;
9034;SDS011;4552;43.422;24.592;2023-09-19T12:45:47;24.10;;;18.93;;
9034;SDS011;4552;43.422;24.592;2023-09-19T12:48:19;16.25;;;15.05;;
9034;SDS011;4552;43.422;24.592;2023-09-19T12:51:03;18.60;;;17.13;;
9034;SDS011;4552;43.422;24.592;2023-09-19T12:53:36;32.57;;;29.27;;
9034;SDS011;4552;43.422;24.592;2023-09-19T12:56:05;16.13;;;15.20;;
9034;SDS011;4552;43.422;24.592;2023-09-19T12:58:35;16.20;;;15.20;;
9034;SDS011;4552;43.422;24.592;2023-09-19T13:01:15;15.40;;;14.43;;
9034;SDS011;4552;43.422;24.592;2023-09-19T13:03:44;17.37;;;16.07;;
9034;SDS011;4552;43.422;24.592;2023-09-19T13:06:11;14.97;;;13.87;;
9034;SDS011;4552;43.422;24.592;2023-09-19T13:08:42;14.23;;;13.33;;
9034;SDS011;4552;43.422;24.592;2023-09-19T13:11:14;13.50;;;12.70;;
9034;SDS011;4552;43.422;24.592;2023-09-19T13:13:44;14.20;;;12.83;;
9034;SDS011;4552;43.422;24.592;2023-09-19T13:16:14;13.43;;;12.63;;
9034;SDS011;4552;43.422;24.592;2023-09-19T13:18:48;14.40;;;13.50;;
9034;SDS011;4552;43.422;24.592;2023-09-19T13:21:26;14.77;;;13.87;;
9034;SDS011;4552;43.422;24.592;2023-09-19T23:56:56;6.07;;;3.70;;
9034;SDS011;4552;43.422;24.592;2023-09-19T23:59:23;5.93;;;3.13;;
